Terminal Aerodrome Forecast
Issued by NWS Memphis, TN

Home | Current Version | Previous Version | Text Only | Print | Product List | Glossary On
Versions: 1 2 3 4 5 6 7 8 9 10 11 12 13 14 15 16 17 18 19 20 21 22 23 24
000
FTUS44 KMEG 122320
TAFMEM
TAF
KMEM 122320Z 1300/1406 VRB03KT P6SM SKC
     FM131400 21012G18KT P6SM SKC
     FM131800 22019G26KT P6SM FEW150 SCT250
     FM140000 24010KT P6SM SCT200=

USA.gov is the U.S. government's official web portal to all federal, state and local government web resources and services.